createdAt,value
2023-04-09T00:00:41.000Z,0
2023-04-09T00:01:57.000Z,0
2023-04-09T00:03:13.000Z,0
2023-04-09T00:04:29.000Z,0
2023-04-09T00:05:46.000Z,0
2023-04-09T00:07:02.000Z,0
2023-04-09T00:08:17.000Z,0
2023-04-09T00:09:33.000Z,0
2023-04-09T00:10:49.000Z,0
2023-04-09T00:12:06.000Z,0
2023-04-09T00:13:22.000Z,0
2023-04-09T00:14:38.000Z,0
2023-04-09T00:15:54.000Z,0
2023-04-09T00:17:10.000Z,0
2023-04-09T00:18:27.000Z,0
2023-04-09T00:19:43.000Z,0
2023-04-09T00:20:59.000Z,0
2023-04-09T00:22:15.000Z,0
2023-04-09T00:23:31.000Z,0
2023-04-09T00:24:47.000Z,0
2023-04-09T00:26:03.000Z,0
2023-04-09T00:27:19.000Z,0
2023-04-09T00:28:35.000Z,0
2023-04-09T00:29:51.000Z,0
2023-04-09T00:31:07.000Z,0
2023-04-09T00:32:24.000Z,0
2023-04-09T00:33:40.000Z,0
2023-04-09T00:34:56.000Z,0
2023-04-09T00:36:12.000Z,0
2023-04-09T00:37:28.000Z,0
2023-04-09T00:38:45.000Z,0
2023-04-09T00:40:01.000Z,0
2023-04-09T00:41:16.000Z,0
2023-04-09T00:42:32.000Z,0
2023-04-09T00:43:48.000Z,0
2023-04-09T00:45:05.000Z,0
2023-04-09T00:46:21.000Z,0
2023-04-09T00:47:37.000Z,0
2023-04-09T00:48:53.000Z,0
2023-04-09T00:50:09.000Z,0
2023-04-09T00:51:26.000Z,0
2023-04-09T00:52:42.000Z,0
2023-04-09T00:53:58.000Z,0
2023-04-09T00:55:14.000Z,0
2023-04-09T00:56:30.000Z,0
2023-04-09T00:57:46.000Z,0
2023-04-09T00:59:02.000Z,0
2023-04-09T01:00:18.000Z,0
2023-04-09T01:01:34.000Z,0
2023-04-09T01:02:50.000Z,0
2023-04-09T01:04:06.000Z,0
2023-04-09T01:05:23.000Z,0
2023-04-09T01:06:39.000Z,0
2023-04-09T01:07:55.000Z,0
2023-04-09T01:09:11.000Z,0
2023-04-09T01:10:27.000Z,0
2023-04-09T01:11:44.000Z,0
2023-04-09T01:13:00.000Z,0
2023-04-09T01:14:15.000Z,0
2023-04-09T01:15:31.000Z,0
2023-04-09T01:16:47.000Z,0
2023-04-09T01:18:04.000Z,0
2023-04-09T01:19:20.000Z,0
2023-04-09T01:20:36.000Z,0
2023-04-09T01:21:52.000Z,0
2023-04-09T01:23:08.000Z,0
2023-04-09T01:24:25.000Z,0
2023-04-09T01:25:41.000Z,0
2023-04-09T01:26:57.000Z,0
2023-04-09T01:28:13.000Z,0
2023-04-09T01:29:29.000Z,0
2023-04-09T01:30:45.000Z,0
2023-04-09T01:32:01.000Z,0
2023-04-09T01:33:17.000Z,0
2023-04-09T01:34:33.000Z,0
2023-04-09T01:35:49.000Z,0
2023-04-09T01:37:04.000Z,0
2023-04-09T01:38:21.000Z,0
2023-04-09T01:39:37.000Z,0
2023-04-09T01:40:53.000Z,0
2023-04-09T01:42:09.000Z,0
2023-04-09T01:43:25.000Z,0
2023-04-09T01:44:42.000Z,0
2023-04-09T01:45:58.317Z,0
2023-04-09T01:47:14.000Z,0
2023-04-09T01:48:30.000Z,0
2023-04-09T01:49:46.000Z,0
2023-04-09T01:51:03.000Z,0
2023-04-09T01:52:19.000Z,0
2023-04-09T01:53:34.000Z,0
2023-04-09T01:54:50.000Z,0
2023-04-09T01:56:06.000Z,0
2023-04-09T01:57:23.000Z,0
2023-04-09T01:58:39.000Z,0
2023-04-09T01:59:55.000Z,0
2023-04-09T02:01:11.000Z,0
2023-04-09T02:02:27.000Z,0
2023-04-09T02:03:44.000Z,0
2023-04-09T02:05:00.000Z,0
2023-04-09T02:06:16.000Z,0
2023-04-09T02:07:32.000Z,0
2023-04-09T02:08:48.000Z,0
2023-04-09T02:10:03.000Z,0
2023-04-09T02:11:20.000Z,0
2023-04-09T02:12:36.000Z,0
2023-04-09T02:13:52.000Z,0
2023-04-09T02:15:08.000Z,0
2023-04-09T02:16:24.000Z,0
2023-04-09T02:17:41.000Z,0
2023-04-09T02:18:57.000Z,0
2023-04-09T02:20:13.000Z,0
2023-04-09T02:21:29.000Z,0
2023-04-09T02:22:45.000Z,0
2023-04-09T02:24:02.000Z,0
2023-04-09T02:25:18.000Z,0
2023-04-09T02:26:33.000Z,0
2023-04-09T02:27:49.000Z,0
2023-04-09T02:29:05.000Z,0
2023-04-09T02:30:22.000Z,0
2023-04-09T02:31:38.000Z,0
2023-04-09T02:32:54.000Z,0
2023-04-09T02:34:10.000Z,0
2023-04-09T02:35:26.000Z,0
2023-04-09T02:36:42.000Z,0
2023-04-09T02:37:59.000Z,0
2023-04-09T02:39:15.000Z,0
2023-04-09T02:40:31.000Z,0
2023-04-09T02:41:47.000Z,0
2023-04-09T02:43:02.000Z,0
2023-04-09T02:44:19.000Z,0
2023-04-09T02:45:35.000Z,0
2023-04-09T02:46:51.000Z,0
2023-04-09T02:48:07.000Z,0
2023-04-09T02:49:23.000Z,0
2023-04-09T02:50:40.000Z,0
2023-04-09T02:51:56.000Z,0
2023-04-09T02:53:12.000Z,0
2023-04-09T02:54:28.000Z,0
2023-04-09T02:55:44.000Z,0
2023-04-09T02:57:01.000Z,0
2023-04-09T02:58:17.000Z,0
2023-04-09T02:59:32.000Z,0
2023-04-09T03:00:48.000Z,0
2023-04-09T03:02:04.000Z,0
2023-04-09T03:03:21.000Z,0
2023-04-09T03:04:37.000Z,0
2023-04-09T03:05:53.000Z,0
2023-04-09T03:07:09.000Z,0
2023-04-09T03:08:25.000Z,0
2023-04-09T03:09:41.000Z,0
2023-04-09T03:10:58.000Z,0
2023-04-09T03:12:14.000Z,0
2023-04-09T03:13:30.000Z,0
2023-04-09T03:14:46.000Z,0
2023-04-09T03:16:01.000Z,0
2023-04-09T03:17:18.000Z,0
2023-04-09T03:18:34.000Z,0
2023-04-09T03:19:50.000Z,0
2023-04-09T03:21:06.000Z,0
2023-04-09T03:22:22.000Z,0
2023-04-09T03:23:39.000Z,0
2023-04-09T03:24:55.000Z,0
2023-04-09T03:26:11.000Z,0
2023-04-09T03:27:27.000Z,0
2023-04-09T03:28:43.000Z,0
2023-04-09T03:30:00.000Z,0
2023-04-09T03:31:16.000Z,0
2023-04-09T03:32:31.000Z,0
2023-04-09T03:33:47.000Z,0
2023-04-09T03:35:03.000Z,0
2023-04-09T03:36:20.000Z,0
2023-04-09T03:37:36.000Z,0
2023-04-09T03:38:52.000Z,0
2023-04-09T03:40:08.000Z,0
2023-04-09T03:41:24.000Z,0
2023-04-09T03:42:40.000Z,0
2023-04-09T03:43:57.000Z,0
2023-04-09T03:45:13.000Z,0
2023-04-09T03:46:29.000Z,0
2023-04-09T03:47:45.000Z,0
2023-04-09T03:49:00.000Z,0
2023-04-09T03:50:17.000Z,0
2023-04-09T03:51:33.000Z,0
2023-04-09T03:52:49.000Z,0
2023-04-09T03:54:05.000Z,0
2023-04-09T03:55:21.000Z,0
2023-04-09T03:56:38.000Z,0
2023-04-09T03:57:54.000Z,0
2023-04-09T03:59:10.000Z,0
2023-04-09T04:00:26.000Z,0
2023-04-09T04:01:42.000Z,0
2023-04-09T04:02:59.000Z,0
2023-04-09T04:04:15.000Z,0
2023-04-09T04:05:30.000Z,0
2023-04-09T04:06:46.000Z,0
2023-04-09T04:08:02.000Z,0
2023-04-09T04:09:19.000Z,0
2023-04-09T04:10:35.000Z,0
2023-04-09T04:11:51.000Z,0
2023-04-09T04:13:07.000Z,0
2023-04-09T04:14:23.000Z,0
2023-04-09T04:15:39.000Z,4
2023-04-09T04:16:56.000Z,4
2023-04-09T04:18:12.000Z,4
2023-04-09T04:19:28.000Z,4
2023-04-09T04:20:44.000Z,4
2023-04-09T04:21:59.000Z,4
2023-04-09T04:23:16.000Z,4
2023-04-09T04:24:32.000Z,8
2023-04-09T04:25:48.000Z,12
2023-04-09T04:27:04.000Z,16
2023-04-09T04:28:20.000Z,16
2023-04-09T04:29:37.000Z,20
2023-04-09T04:30:53.000Z,24
2023-04-09T04:32:09.000Z,32
2023-04-09T04:33:25.000Z,40
2023-04-09T04:34:41.000Z,44
2023-04-09T04:35:58.000Z,52
2023-04-09T04:37:14.000Z,64
2023-04-09T04:38:29.000Z,76
2023-04-09T04:39:45.000Z,88
2023-04-09T04:41:01.000Z,104
2023-04-09T04:42:18.000Z,120
2023-04-09T04:43:34.000Z,140
2023-04-09T04:44:50.000Z,156
2023-04-09T04:46:06.000Z,180
2023-04-09T04:47:22.000Z,204
2023-04-09T04:48:38.000Z,228
2023-04-09T04:49:55.000Z,260
2023-04-09T04:51:11.000Z,288
2023-04-09T04:52:27.000Z,320
2023-04-09T04:53:43.000Z,356
2023-04-09T04:54:58.000Z,392
2023-04-09T04:56:15.000Z,432
2023-04-09T04:57:31.000Z,472
2023-04-09T04:58:47.000Z,516
2023-04-09T05:00:03.000Z,552
2023-04-09T05:01:19.000Z,604
2023-04-09T05:02:36.000Z,656
2023-04-09T05:03:52.000Z,700
2023-04-09T05:05:08.000Z,760
2023-04-09T05:06:24.000Z,812
2023-04-09T05:07:40.000Z,880
2023-04-09T05:08:57.000Z,940
2023-04-09T05:10:13.000Z,1020
2023-04-09T05:11:28.000Z,1100
2023-04-09T05:12:44.000Z,1172
2023-04-09T05:14:00.000Z,1240
2023-04-09T05:15:17.000Z,1324
2023-04-09T05:16:33.000Z,1388
2023-04-09T05:17:49.000Z,1428
2023-04-09T05:19:05.000Z,1520
2023-04-09T05:20:21.000Z,1576
2023-04-09T05:21:37.000Z,1656
2023-04-09T05:22:54.000Z,1732
2023-04-09T05:24:10.000Z,1836
2023-04-09T05:25:26.000Z,1960
2023-04-09T05:26:42.000Z,2112
2023-04-09T05:27:57.000Z,2224
2023-04-09T05:29:14.000Z,2340
2023-04-09T05:30:30.000Z,2492
2023-04-09T05:31:46.000Z,2612
2023-04-09T05:33:02.000Z,2748
2023-04-09T05:34:18.000Z,2868
2023-04-09T05:35:35.000Z,2936
2023-04-09T05:36:51.000Z,3100
2023-04-09T05:38:07.000Z,3192
2023-04-09T05:39:23.000Z,3052
2023-04-09T05:40:39.000Z,3056
2023-04-09T05:41:55.000Z,3192
2023-04-09T05:43:12.000Z,3372
2023-04-09T05:44:27.000Z,3700
2023-04-09T05:45:43.000Z,4016
2023-04-09T05:46:59.000Z,4152
2023-04-09T05:48:15.000Z,4224
2023-04-09T05:49:32.000Z,4348
2023-04-09T05:50:48.000Z,4536
2023-04-09T05:52:03.000Z,4568
2023-04-09T05:53:19.000Z,4292
2023-04-09T05:54:35.000Z,3944
2023-04-09T05:55:52.000Z,3908
2023-04-09T05:57:08.000Z,3948
2023-04-09T05:58:24.000Z,4024
2023-04-09T05:59:40.000Z,4076
2023-04-09T06:00:56.000Z,4176
2023-04-09T06:02:13.000Z,4716
2023-04-09T06:03:29.000Z,5708
2023-04-09T06:04:45.000Z,6204
2023-04-09T06:06:01.000Z,6364
2023-04-09T06:07:17.000Z,6420
2023-04-09T06:08:33.000Z,6428
2023-04-09T06:09:49.000Z,6540
2023-04-09T06:11:05.000Z,6564
2023-04-09T06:12:21.000Z,6500
2023-04-09T06:13:37.000Z,6712
2023-04-09T06:14:53.000Z,6964
2023-04-09T06:16:10.000Z,6712
2023-04-09T06:17:26.000Z,5316
2023-04-09T06:18:42.000Z,5168
2023-04-09T06:19:58.000Z,5832
2023-04-09T06:21:14.000Z,7228
2023-04-09T06:22:31.000Z,5744
2023-04-09T06:23:47.000Z,7968
2023-04-09T06:25:02.000Z,8228
2023-04-09T06:26:18.000Z,8380
2023-04-09T06:27:34.000Z,8276
2023-04-09T06:28:51.000Z,6748
2023-04-09T06:30:07.000Z,5944
2023-04-09T06:31:23.000Z,5736
2023-04-09T06:32:39.000Z,5916
2023-04-09T06:33:55.000Z,5572
2023-04-09T06:35:12.000Z,5792
2023-04-09T06:36:28.000Z,5644
2023-04-09T06:37:44.000Z,5560
2023-04-09T06:39:00.000Z,5716
2023-04-09T06:40:16.000Z,5956
2023-04-09T06:41:31.000Z,5412
2023-04-09T06:42:48.000Z,5336
2023-04-09T06:44:04.000Z,5768
2023-04-09T06:45:20.000Z,5412
2023-04-09T06:46:36.000Z,6536
2023-04-09T06:47:52.000Z,11272
2023-04-09T06:49:09.000Z,5652
2023-04-09T06:50:25.000Z,10008
2023-04-09T06:51:41.000Z,13472
2023-04-09T06:52:57.000Z,5876
2023-04-09T06:54:13.000Z,6176
2023-04-09T06:55:30.000Z,6180
2023-04-09T06:56:46.000Z,9528
2023-04-09T06:58:01.000Z,16256
2023-04-09T06:59:17.000Z,18080
2023-04-09T07:00:33.000Z,14408
2023-04-09T07:01:50.000Z,14840
2023-04-09T07:03:06.000Z,9568
2023-04-09T07:04:22.000Z,6288
2023-04-09T07:05:38.000Z,5956
2023-04-09T07:06:54.000Z,5880
2023-04-09T07:08:10.000Z,5780
2023-04-09T07:09:27.000Z,5620
2023-04-09T07:10:43.000Z,5920
2023-04-09T07:11:59.000Z,5800
2023-04-09T07:13:15.000Z,5940
2023-04-09T07:14:30.000Z,7880
2023-04-09T07:15:47.000Z,13376
2023-04-09T07:17:03.000Z,6972
2023-04-09T07:18:19.000Z,20480
2023-04-09T07:19:35.000Z,19296
2023-04-09T07:20:51.000Z,18688
2023-04-09T07:22:08.000Z,19264
2023-04-09T07:23:24.000Z,15548
2023-04-09T07:24:40.000Z,7040
2023-04-09T07:25:56.000Z,6100
2023-04-09T07:27:12.000Z,5988
2023-04-09T07:28:28.000Z,5884
2023-04-09T07:29:45.000Z,5828
2023-04-09T07:31:00.000Z,5732
2023-04-09T07:32:16.000Z,5728
2023-04-09T07:33:32.000Z,5712
2023-04-09T07:34:48.000Z,5660
2023-04-09T07:36:05.000Z,5608
2023-04-09T07:37:21.000Z,5680
2023-04-09T07:38:37.000Z,5784
2023-04-09T07:39:53.000Z,5828
2023-04-09T07:41:09.000Z,5808
2023-04-09T07:42:26.000Z,5824
2023-04-09T07:43:42.000Z,5840
2023-04-09T07:44:58.000Z,5856
2023-04-09T07:46:14.000Z,5864
2023-04-09T07:47:29.000Z,5924
2023-04-09T07:48:46.000Z,5948
2023-04-09T07:50:02.000Z,5924
2023-04-09T07:51:18.000Z,5924
2023-04-09T07:52:34.000Z,5924
2023-04-09T07:53:50.000Z,5956
2023-04-09T07:55:06.000Z,5972
2023-04-09T07:56:23.000Z,5960
2023-04-09T07:57:39.000Z,5996
2023-04-09T07:58:55.000Z,6068
2023-04-09T08:00:11.000Z,6036
2023-04-09T08:01:27.000Z,6024
2023-04-09T08:02:44.000Z,6096
2023-04-09T08:03:59.000Z,6120
2023-04-09T08:05:15.000Z,6100
2023-04-09T08:06:31.000Z,6120
2023-04-09T08:07:47.000Z,6192
2023-04-09T08:09:04.000Z,6204
2023-04-09T08:10:20.000Z,6164
2023-04-09T08:11:36.000Z,6168
2023-04-09T08:12:52.000Z,6236
2023-04-09T08:14:08.000Z,6184
2023-04-09T08:15:25.000Z,6176
2023-04-09T08:16:41.000Z,6216
2023-04-09T08:17:57.000Z,6316
2023-04-09T08:19:13.000Z,6272
2023-04-09T08:20:28.000Z,6320
2023-04-09T08:21:44.000Z,6312
2023-04-09T08:23:01.000Z,6352
2023-04-09T08:24:17.000Z,6440
2023-04-09T08:25:33.000Z,6588
2023-04-09T08:26:49.000Z,9756
2023-04-09T08:28:05.000Z,26176
2023-04-09T08:29:22.000Z,20192
2023-04-09T08:30:38.000Z,15220
2023-04-09T08:31:54.000Z,18208
2023-04-09T08:33:10.687Z,20384
2023-04-09T08:34:26.000Z,21344
2023-04-09T08:35:43.000Z,23904
2023-04-09T08:36:59.000Z,14820
2023-04-09T08:38:15.000Z,7004
2023-04-09T08:39:31.000Z,6688
2023-04-09T08:40:47.000Z,6576
2023-04-09T08:42:04.000Z,6540
2023-04-09T08:43:20.000Z,6608
2023-04-09T08:44:36.000Z,6640
2023-04-09T08:45:52.000Z,6636
2023-04-09T08:47:08.000Z,6668
2023-04-09T08:48:25.000Z,6744
2023-04-09T08:49:41.000Z,6800
2023-04-09T08:50:57.000Z,6804
2023-04-09T08:52:13.000Z,6832
2023-04-09T08:53:28.000Z,6860
2023-04-09T08:54:45.000Z,6884
2023-04-09T08:56:01.000Z,6848
2023-04-09T08:57:17.000Z,6868
2023-04-09T08:58:33.000Z,6844
2023-04-09T08:59:49.000Z,6836
2023-04-09T09:01:05.000Z,6932
2023-04-09T09:02:22.000Z,7020
2023-04-09T09:03:38.000Z,7172
2023-04-09T09:04:54.000Z,7396
2023-04-09T09:06:10.000Z,11884
2023-04-09T09:07:26.000Z,36704
2023-04-09T09:08:43.000Z,49856
2023-04-09T09:09:58.000Z,25600
2023-04-09T09:11:14.000Z,9532
2023-04-09T09:12:30.000Z,11940
2023-04-09T09:13:46.000Z,13324
2023-04-09T09:15:03.000Z,13892
2023-04-09T09:16:19.000Z,13536
2023-04-09T09:17:35.000Z,8936
2023-04-09T09:18:51.000Z,7824
2023-04-09T09:20:07.000Z,7752
2023-04-09T09:21:24.000Z,7824
2023-04-09T09:22:40.000Z,7816
2023-04-09T09:23:56.000Z,7752
2023-04-09T09:25:12.000Z,7680
2023-04-09T09:26:27.000Z,7672
2023-04-09T09:27:43.000Z,7764
2023-04-09T09:29:00.000Z,7808
2023-04-09T09:30:16.000Z,7792
2023-04-09T09:31:32.000Z,7800
2023-04-09T09:32:48.000Z,7952
2023-04-09T09:34:04.000Z,7972
2023-04-09T09:35:21.000Z,8172
2023-04-09T09:36:37.000Z,8380
2023-04-09T09:37:53.000Z,8404
2023-04-09T09:39:09.000Z,8448
2023-04-09T09:40:25.000Z,8512
2023-04-09T09:41:42.000Z,8652
2023-04-09T09:42:57.000Z,8756
2023-04-09T09:44:13.000Z,8516
2023-04-09T09:45:29.000Z,9544
2023-04-09T09:46:45.000Z,9652
2023-04-09T09:48:02.000Z,9996
2023-04-09T09:49:18.000Z,11548
2023-04-09T09:50:34.000Z,12208
2023-04-09T09:51:50.000Z,12888
2023-04-09T09:53:06.000Z,11648
2023-04-09T09:54:22.000Z,10344
2023-04-09T09:55:39.000Z,10480
2023-04-09T09:56:55.000Z,11940
2023-04-09T09:58:11.000Z,14216
2023-04-09T09:59:26.000Z,15600
2023-04-09T10:00:42.000Z,15020
2023-04-09T10:01:59.000Z,13260
2023-04-09T10:03:15.000Z,12424
2023-04-09T10:04:31.000Z,10196
2023-04-09T10:05:47.000Z,9152
2023-04-09T10:07:03.000Z,8840
2023-04-09T10:08:19.000Z,10216
2023-04-09T10:09:35.000Z,11956
2023-04-09T10:10:51.000Z,12992
2023-04-09T10:12:07.000Z,19168
2023-04-09T10:13:23.000Z,45376
2023-04-09T10:14:40.000Z,40192
2023-04-09T10:15:56.000Z,45216
2023-04-09T10:17:12.000Z,35904
2023-04-09T10:18:28.000Z,28512
2023-04-09T10:19:44.000Z,18528
2023-04-09T10:21:00.000Z,41056
2023-04-09T10:22:17.000Z,40704
2023-04-09T10:23:33.000Z,25408
2023-04-09T10:24:48.000Z,25120
2023-04-09T10:26:04.000Z,41664
2023-04-09T10:27:20.000Z,17504
2023-04-09T10:28:37.000Z,13316
2023-04-09T10:29:53.000Z,13596
2023-04-09T10:31:09.000Z,13692
2023-04-09T10:32:25.000Z,29696
2023-04-09T10:33:41.000Z,39392
2023-04-09T10:34:58.000Z,42400
2023-04-09T10:36:14.000Z,17600
2023-04-09T10:37:30.000Z,24384
2023-04-09T10:38:46.000Z,38720
2023-04-09T10:40:02.000Z,14936
2023-04-09T10:41:18.000Z,41984
2023-04-09T10:42:34.000Z,55424
2023-04-09T10:43:50.000Z,12544
2023-04-09T10:45:06.000Z,11476
2023-04-09T10:46:22.000Z,11676
2023-04-09T10:47:38.000Z,12384
2023-04-09T10:48:55.000Z,15148
2023-04-09T10:50:11.000Z,32736
2023-04-09T10:51:27.000Z,30880
2023-04-09T10:52:43.000Z,46784
2023-04-09T10:53:59.000Z,36928
2023-04-09T10:55:16.000Z,66752
2023-04-09T10:56:32.000Z,67904
2023-04-09T10:57:47.000Z,22144
2023-04-09T10:59:03.000Z,49632
2023-04-09T11:00:19.000Z,67904
2023-04-09T11:01:36.000Z,66784
2023-04-09T11:02:52.000Z,36160
2023-04-09T11:04:08.000Z,45728
2023-04-09T11:05:24.000Z,42816
2023-04-09T11:06:40.000Z,28608
2023-04-09T11:07:56.000Z,40352
2023-04-09T11:09:13.000Z,58592
2023-04-09T11:10:29.000Z,61152
2023-04-09T11:11:45.000Z,32928
2023-04-09T11:13:01.000Z,49952
2023-04-09T11:14:16.000Z,70944
2023-04-09T11:15:33.000Z,75488
2023-04-09T11:16:49.000Z,68256
2023-04-09T11:18:05.000Z,31136
2023-04-09T11:19:21.000Z,20480
2023-04-09T11:20:37.000Z,20416
2023-04-09T11:21:54.000Z,54400
2023-04-09T11:23:10.000Z,41952
2023-04-09T11:24:26.000Z,23360
2023-04-09T11:25:42.000Z,17356
2023-04-09T11:26:58.000Z,18880
2023-04-09T11:28:15.000Z,19744
2023-04-09T11:29:31.000Z,19520
2023-04-09T11:30:46.000Z,20448
2023-04-09T11:32:02.000Z,20832
2023-04-09T11:33:18.000Z,20704
2023-04-09T11:34:34.000Z,18976
2023-04-09T11:35:51.000Z,16944
2023-04-09T11:37:07.000Z,16048
2023-04-09T11:38:23.000Z,18400
2023-04-09T11:39:39.000Z,18912
2023-04-09T11:40:55.000Z,17488
2023-04-09T11:42:12.000Z,16448
2023-04-09T11:43:28.000Z,18208
2023-04-09T11:44:44.000Z,16880
2023-04-09T11:46:00.000Z,15892
2023-04-09T11:47:15.000Z,17568
2023-04-09T11:48:32.000Z,17632
2023-04-09T11:49:48.000Z,19680
2023-04-09T11:51:04.000Z,19360
2023-04-09T11:52:20.000Z,18784
2023-04-09T11:53:36.000Z,17536
2023-04-09T11:54:53.000Z,15916
2023-04-09T11:56:09.000Z,16036
2023-04-09T11:57:25.000Z,19424
2023-04-09T11:58:41.000Z,22656
2023-04-09T11:59:57.000Z,23712
2023-04-09T12:01:13.000Z,25984
2023-04-09T12:02:30.000Z,35936
2023-04-09T12:03:45.000Z,46208
2023-04-09T12:05:01.000Z,67008
2023-04-09T12:06:17.000Z,70208
2023-04-09T12:07:33.000Z,70688
2023-04-09T12:08:50.000Z,50432
2023-04-09T12:10:06.000Z,46816
2023-04-09T12:11:22.000Z,71648
2023-04-09T12:12:38.000Z,69856
2023-04-09T12:13:54.000Z,68288
2023-04-09T12:15:11.000Z,40320
2023-04-09T12:16:27.000Z,36832
2023-04-09T12:17:43.000Z,49056
2023-04-09T12:18:59.000Z,35008
2023-04-09T12:20:14.000Z,42240
2023-04-09T12:21:31.000Z,28160
2023-04-09T12:22:47.000Z,55744
2023-04-09T12:24:03.000Z,53920
2023-04-09T12:25:19.000Z,44192
2023-04-09T12:26:35.000Z,38112
2023-04-09T12:27:51.000Z,40768
2023-04-09T12:29:08.000Z,59392
2023-04-09T12:30:24.000Z,77408
2023-04-09T12:32:56.000Z,76448
2023-04-09T12:34:12.000Z,18976
2023-04-09T12:35:29.000Z,16852
2023-04-09T12:36:44.000Z,20832
2023-04-09T12:38:00.000Z,25120
2023-04-09T12:39:16.000Z,15304
2023-04-09T12:40:32.000Z,13996
2023-04-09T12:41:49.000Z,13296
2023-04-09T12:43:05.000Z,13000
2023-04-09T12:44:21.000Z,12636
2023-04-09T12:45:37.000Z,14312
2023-04-09T12:46:53.000Z,14324
2023-04-09T12:48:09.000Z,14724
2023-04-09T12:49:26.000Z,15632
2023-04-09T12:50:42.000Z,31872
2023-04-09T12:51:58.000Z,17632
2023-04-09T12:53:13.000Z,17984
2023-04-09T12:54:29.000Z,58336
2023-04-09T12:55:46.000Z,29408
2023-04-09T12:57:02.000Z,56032
2023-04-09T12:58:18.000Z,54400
2023-04-09T12:59:34.000Z,61568
2023-04-09T13:00:50.000Z,61440
2023-04-09T13:02:07.000Z,41472
2023-04-09T13:03:23.000Z,30112
2023-04-09T13:04:39.000Z,31168
2023-04-09T13:05:55.000Z,47168
2023-04-09T13:07:11.000Z,28288
2023-04-09T13:08:28.000Z,42368
2023-04-09T13:09:43.000Z,40256
2023-04-09T13:10:59.000Z,37568
2023-04-09T13:12:15.000Z,37088
2023-04-09T13:13:31.000Z,37824
2023-04-09T13:14:47.000Z,38624
2023-04-09T13:16:04.000Z,31168
2023-04-09T13:17:20.000Z,36032
2023-04-09T13:18:36.000Z,53440
2023-04-09T13:19:52.000Z,63712
2023-04-09T13:21:08.000Z,65056
2023-04-09T13:22:25.000Z,64384
2023-04-09T13:23:41.000Z,63712
2023-04-09T13:24:57.000Z,20896
2023-04-09T13:26:12.000Z,22112
2023-04-09T13:27:28.000Z,21504
2023-04-09T13:28:45.000Z,18368
2023-04-09T13:30:01.000Z,17376
2023-04-09T13:31:17.000Z,16356
2023-04-09T13:32:33.000Z,15732
2023-04-09T13:33:49.000Z,15736
2023-04-09T13:35:06.000Z,16960
2023-04-09T13:36:22.000Z,19168
2023-04-09T13:37:38.000Z,35776
2023-04-09T13:38:54.000Z,62464
2023-04-09T13:40:10.000Z,35680
2023-04-09T13:41:26.000Z,65280
2023-04-09T13:42:42.000Z,63488
2023-04-09T13:43:58.000Z,63296
2023-04-09T13:45:14.000Z,49984
2023-04-09T13:46:30.000Z,54112
2023-04-09T13:47:46.000Z,24768
2023-04-09T13:49:03.000Z,16864
2023-04-09T13:50:19.000Z,15264
2023-04-09T13:51:35.000Z,15552
2023-04-09T13:52:51.000Z,16532
2023-04-09T13:54:07.000Z,13248
2023-04-09T13:55:24.000Z,13036
2023-04-09T13:56:40.000Z,13408
2023-04-09T13:57:56.000Z,13332
2023-04-09T13:59:11.000Z,14560
2023-04-09T14:00:27.000Z,18144
2023-04-09T14:01:44.000Z,25216
2023-04-09T14:03:00.000Z,15432
2023-04-09T14:04:16.000Z,16116
2023-04-09T14:05:32.000Z,15136
2023-04-09T14:06:48.000Z,16388
2023-04-09T14:08:04.000Z,16764
2023-04-09T14:09:21.000Z,16780
2023-04-09T14:10:37.000Z,16332
2023-04-09T14:11:53.000Z,17312
2023-04-09T14:13:09.000Z,25920
2023-04-09T14:14:25.000Z,38464
2023-04-09T14:15:41.000Z,48288
2023-04-09T14:16:57.000Z,40096
2023-04-09T14:18:13.000Z,44160
2023-04-09T14:19:29.000Z,35744
2023-04-09T14:20:45.000Z,33472
2023-04-09T14:22:02.000Z,18720
2023-04-09T14:23:17.000Z,24768
2023-04-09T14:24:33.000Z,21088
2023-04-09T14:25:49.000Z,18592
2023-04-09T14:27:05.000Z,18048
2023-04-09T14:28:22.000Z,27296
2023-04-09T14:29:38.000Z,18688
2023-04-09T14:30:54.000Z,16768
2023-04-09T14:32:10.000Z,38464
2023-04-09T14:33:26.000Z,14200
2023-04-09T14:34:42.000Z,13900
2023-04-09T14:35:59.000Z,13232
2023-04-09T14:37:15.000Z,12844
2023-04-09T14:38:31.000Z,12160
2023-04-09T14:39:46.000Z,11816
2023-04-09T14:41:02.000Z,11776
2023-04-09T14:42:19.000Z,12080
2023-04-09T14:43:35.000Z,13636
2023-04-09T14:44:51.000Z,23616
2023-04-09T14:46:07.000Z,28960
2023-04-09T14:47:23.000Z,13144
2023-04-09T14:48:40.000Z,12276
2023-04-09T14:49:56.000Z,11592
2023-04-09T14:51:12.000Z,10856
2023-04-09T14:52:28.000Z,11496
2023-04-09T14:53:44.000Z,20672
2023-04-09T14:55:01.000Z,12348
2023-04-09T14:56:16.000Z,12276
2023-04-09T14:57:32.000Z,13148
2023-04-09T14:58:48.000Z,12860
2023-04-09T15:00:04.000Z,11940
2023-04-09T15:01:21.000Z,11284
2023-04-09T15:02:37.000Z,10940
2023-04-09T15:03:53.000Z,10740
2023-04-09T15:05:09.000Z,10648
2023-04-09T15:06:25.000Z,10440
2023-04-09T15:07:41.000Z,10300
2023-04-09T15:08:58.000Z,10076
2023-04-09T15:10:14.000Z,9872
2023-04-09T15:11:30.000Z,9632
2023-04-09T15:12:45.000Z,9500
2023-04-09T15:14:01.000Z,9388
2023-04-09T15:15:18.000Z,9416
2023-04-09T15:16:34.000Z,9864
2023-04-09T15:17:50.000Z,21728
2023-04-09T15:19:06.000Z,28704
2023-04-09T15:20:22.000Z,10856
2023-04-09T15:21:39.000Z,10228
2023-04-09T15:22:55.000Z,9856
2023-04-09T15:24:11.000Z,9952
2023-04-09T15:25:27.000Z,9964
2023-04-09T15:26:43.000Z,9928
2023-04-09T15:28:00.000Z,9760
2023-04-09T15:29:16.000Z,9448
2023-04-09T15:30:31.000Z,9348
2023-04-09T15:31:47.000Z,11348
2023-04-09T15:33:03.000Z,9788
2023-04-09T15:34:19.000Z,9200
2023-04-09T15:35:36.000Z,9128
2023-04-09T15:36:52.000Z,9164
2023-04-09T15:38:08.000Z,9244
2023-04-09T15:39:24.000Z,9484
2023-04-09T15:40:40.000Z,9280
2023-04-09T15:41:57.000Z,9144
2023-04-09T15:43:13.000Z,8836
2023-04-09T15:44:29.000Z,7980
2023-04-09T15:45:45.000Z,7244
2023-04-09T15:47:00.000Z,6900
2023-04-09T15:48:17.000Z,7548
2023-04-09T15:49:33.000Z,11504
2023-04-09T15:50:49.000Z,9528
2023-04-09T15:52:05.000Z,7652
2023-04-09T15:53:21.000Z,9144
2023-04-09T15:54:38.000Z,10624
2023-04-09T15:55:54.000Z,7832
2023-04-09T15:57:10.000Z,11128
2023-04-09T15:58:26.000Z,12088
2023-04-09T15:59:42.000Z,12408
2023-04-09T16:00:58.000Z,8812
2023-04-09T16:02:15.000Z,10260
2023-04-09T16:03:30.000Z,10704
2023-04-09T16:04:46.000Z,10820
2023-04-09T16:06:02.000Z,9720
2023-04-09T16:07:18.000Z,9372
2023-04-09T16:08:35.000Z,8652
2023-04-09T16:09:51.000Z,8448
2023-04-09T16:11:07.000Z,8184
2023-04-09T16:12:23.000Z,8496
2023-04-09T16:13:39.000Z,8300
2023-04-09T16:14:56.000Z,7580
2023-04-09T16:16:12.000Z,5100
2023-04-09T16:17:28.000Z,4864
2023-04-09T16:18:44.000Z,4876
2023-04-09T16:20:00.000Z,5024
2023-04-09T16:21:16.000Z,8004
2023-04-09T16:22:32.000Z,7892
2023-04-09T16:23:48.000Z,7652
2023-04-09T16:25:04.000Z,7740
2023-04-09T16:26:20.000Z,7652
2023-04-09T16:27:37.000Z,7420
2023-04-09T16:28:53.000Z,7096
2023-04-09T16:30:09.000Z,6868
2023-04-09T16:31:25.000Z,6688
2023-04-09T16:32:41.000Z,6560
2023-04-09T16:33:57.000Z,6248
2023-04-09T16:35:14.000Z,5804
2023-04-09T16:36:30.000Z,5504
2023-04-09T16:37:45.000Z,5372
2023-04-09T16:39:01.000Z,5240
2023-04-09T16:40:17.000Z,5108
2023-04-09T16:41:34.000Z,5000
2023-04-09T16:42:50.000Z,4900
2023-04-09T16:44:06.000Z,4824
2023-04-09T16:45:22.000Z,4764
2023-04-09T16:46:38.000Z,4696
2023-04-09T16:47:55.000Z,4616
2023-04-09T16:49:11.000Z,4528
2023-04-09T16:50:27.000Z,4416
2023-04-09T16:51:43.000Z,4288
2023-04-09T16:52:59.000Z,4208
2023-04-09T16:54:15.000Z,4116
2023-04-09T16:55:31.000Z,4016
2023-04-09T16:56:47.000Z,3936
2023-04-09T16:58:03.000Z,3844
2023-04-09T16:59:19.000Z,3772
2023-04-09T17:00:35.000Z,3676
2023-04-09T17:01:52.000Z,3596
2023-04-09T17:03:08.000Z,3512
2023-04-09T17:04:24.517Z,3436
2023-04-09T17:05:40.000Z,3396
2023-04-09T17:06:56.000Z,3348
2023-04-09T17:08:13.000Z,3308
2023-04-09T17:09:29.000Z,3236
2023-04-09T17:10:44.000Z,3180